createdAt,value
2023-02-03T00:00:02.668Z,6.93
2023-02-03T00:01:01.805Z,7.80
2023-02-03T00:02:01.484Z,6.87
2023-02-03T00:03:02.151Z,6.80
2023-02-03T00:04:01.395Z,7.33
2023-02-03T00:05:01.387Z,8.20
2023-02-03T00:06:03.311Z,7.53
2023-02-03T00:07:01.538Z,6.00
2023-02-03T00:08:03.199Z,7.40
2023-02-03T00:09:02.157Z,7.03
2023-02-03T00:10:02.297Z,6.53
2023-02-03T00:11:01.894Z,8.40
2023-02-03T00:12:01.782Z,7.40
2023-02-03T00:13:01.871Z,7.73
2023-02-03T00:14:01.732Z,8.30
2023-02-03T00:15:01.879Z,8.57
2023-02-03T00:16:01.515Z,8.07
2023-02-03T00:17:01.400Z,8.40
2023-02-03T00:18:01.435Z,8.00
2023-02-03T00:19:02.143Z,7.97
2023-02-03T00:20:02.135Z,9.23
2023-02-03T00:21:01.435Z,8.50
2023-02-03T00:22:01.395Z,8.93
2023-02-03T00:23:04.413Z,9.13
2023-02-03T00:24:01.387Z,8.70
2023-02-03T00:25:01.416Z,9.63
2023-02-03T00:26:07.509Z,8.97
2023-02-03T00:27:01.390Z,8.17
2023-02-03T00:28:01.999Z,8.10
2023-02-03T00:29:01.377Z,8.07
2023-02-03T00:30:01.761Z,8.03
2023-02-03T00:31:01.989Z,8.67
2023-02-03T00:32:01.965Z,7.13
2023-02-03T00:33:01.390Z,8.27
2023-02-03T00:34:01.476Z,8.97
2023-02-03T00:35:01.405Z,9.30
2023-02-03T00:36:05.134Z,10.00
2023-02-03T00:37:01.388Z,9.83
2023-02-03T00:38:01.381Z,8.83
2023-02-03T00:39:01.491Z,8.07
2023-02-03T00:40:01.494Z,8.23
2023-02-03T00:41:01.730Z,8.87
2023-02-03T00:42:03.157Z,9.47
2023-02-03T00:43:01.726Z,9.00
2023-02-03T00:44:01.407Z,9.47
2023-02-03T00:45:02.185Z,9.63
2023-02-03T00:46:01.475Z,10.13
2023-02-03T00:47:01.727Z,10.23
2023-02-03T00:48:01.389Z,9.33
2023-02-03T00:49:01.992Z,9.10
2023-02-03T00:50:01.396Z,9.20
2023-02-03T00:51:01.400Z,9.00
2023-02-03T00:52:01.444Z,8.33
2023-02-03T00:53:01.986Z,8.03
2023-02-03T00:54:01.761Z,8.33
2023-02-03T00:55:01.429Z,8.27
2023-02-03T00:56:01.746Z,8.30
2023-02-03T00:57:01.372Z,7.60
2023-02-03T00:58:01.407Z,9.33
2023-02-03T00:59:01.816Z,7.77
2023-02-03T01:00:01.417Z,6.30
2023-02-03T01:01:01.415Z,7.63
2023-02-03T01:02:01.755Z,8.63
2023-02-03T01:03:01.398Z,8.77
2023-02-03T01:04:02.833Z,8.30
2023-02-03T01:05:01.420Z,9.30
2023-02-03T01:06:10.216Z,8.83
2023-02-03T01:07:01.388Z,8.13
2023-02-03T01:08:01.595Z,8.77
2023-02-03T01:09:02.373Z,8.83
2023-02-03T01:10:01.772Z,7.20
2023-02-03T01:11:06.151Z,8.57
2023-02-03T01:12:02.114Z,8.70
2023-02-03T01:13:01.376Z,9.00
2023-02-03T01:14:01.825Z,8.37
2023-02-03T01:15:02.484Z,8.90
2023-02-03T01:16:01.825Z,7.33
2023-02-03T01:17:01.778Z,8.57
2023-02-03T01:18:01.391Z,9.43
2023-02-03T01:19:01.875Z,7.20
2023-02-03T01:20:01.888Z,8.50
2023-02-03T01:21:05.775Z,10.50
2023-02-03T01:22:01.380Z,9.23
2023-02-03T01:23:01.383Z,6.93
2023-02-03T01:24:02.089Z,9.00
2023-02-03T01:25:01.367Z,9.37
2023-02-03T01:26:03.912Z,6.47
2023-02-03T01:27:01.412Z,8.67
2023-02-03T01:28:01.830Z,9.20
2023-02-03T01:29:01.999Z,9.10
2023-02-03T01:30:01.389Z,9.30
2023-02-03T01:31:10.841Z,8.37
2023-02-03T01:32:01.737Z,9.33
2023-02-03T01:33:01.386Z,9.57
2023-02-03T01:34:02.037Z,9.93
2023-02-03T01:35:01.379Z,8.97
2023-02-03T01:36:02.105Z,8.67
2023-02-03T01:37:01.632Z,9.07
2023-02-03T01:38:01.378Z,9.57
2023-02-03T01:39:03.003Z,8.87
2023-02-03T01:40:01.941Z,8.07
2023-02-03T01:41:01.865Z,9.20
2023-02-03T01:42:01.740Z,9.90
2023-02-03T01:43:01.714Z,10.07
2023-02-03T01:44:12.010Z,8.80
2023-02-03T01:45:01.767Z,8.70
2023-02-03T01:46:06.355Z,9.20
2023-02-03T01:47:03.064Z,9.43
2023-02-03T01:48:03.456Z,9.80
2023-02-03T01:49:06.402Z,10.10
2023-02-03T01:50:08.876Z,8.93
2023-02-03T01:51:03.208Z,9.13
2023-02-03T01:52:02.731Z,10.87
2023-02-03T01:53:04.486Z,9.13
2023-02-03T01:54:03.183Z,10.83
2023-02-03T01:55:04.987Z,10.00
2023-02-03T01:56:03.317Z,9.53
2023-02-03T01:57:05.476Z,9.80
2023-02-03T01:58:06.969Z,10.10
2023-02-03T01:59:02.361Z,9.77
2023-02-03T02:00:03.665Z,8.83
2023-02-03T02:01:01.925Z,9.30
2023-02-03T02:02:03.724Z,9.37
2023-02-03T02:03:03.996Z,9.33
2023-02-03T02:04:03.620Z,10.07
2023-02-03T02:05:06.086Z,9.90
2023-02-03T02:06:05.009Z,10.27
2023-02-03T02:07:02.698Z,10.63
2023-02-03T02:08:03.226Z,9.73
2023-02-03T02:09:01.627Z,9.00
2023-02-03T02:10:02.453Z,10.63
2023-02-03T02:11:01.834Z,10.00
2023-02-03T02:12:01.382Z,9.90
2023-02-03T02:13:04.650Z,10.43
2023-02-03T02:14:02.853Z,9.73
2023-02-03T02:15:02.138Z,9.27
2023-02-03T02:16:09.803Z,9.50
2023-02-03T02:17:09.190Z,10.40
2023-02-03T02:18:16.973Z,9.83
2023-02-03T02:19:20.795Z,9.27
2023-02-03T02:20:21.017Z,9.23
2023-02-03T02:21:20.787Z,9.87
2023-02-03T02:22:10.820Z,8.37
2023-02-03T02:23:20.817Z,11.40
2023-02-03T02:25:13.867Z,9.87
2023-02-03T02:26:20.795Z,9.90
2023-02-03T02:27:06.412Z,10.07
2023-02-03T02:28:20.785Z,8.83
2023-02-03T02:29:20.793Z,10.13
2023-02-03T02:30:20.786Z,10.17
2023-02-03T02:31:17.277Z,10.73
2023-02-03T02:32:17.571Z,9.63
2023-02-03T02:33:10.750Z,11.00
2023-02-03T02:34:11.274Z,11.00
2023-02-03T02:35:09.419Z,10.27
2023-02-03T02:36:13.534Z,11.33
2023-02-03T02:38:09.279Z,9.77
2023-02-03T02:39:09.501Z,9.63
2023-02-03T02:40:10.886Z,9.53
2023-02-03T02:41:07.141Z,10.57
2023-02-03T02:42:12.861Z,10.83
2023-02-03T02:43:08.364Z,10.17
2023-02-03T02:44:08.936Z,10.67
2023-02-03T02:45:08.818Z,10.37
2023-02-03T02:46:08.404Z,9.63
2023-02-03T02:47:08.050Z,11.00
2023-02-03T02:48:07.387Z,10.73
2023-02-03T02:49:06.375Z,11.70
2023-02-03T02:50:08.227Z,11.17
2023-02-03T02:51:05.923Z,11.40
2023-02-03T02:52:04.707Z,10.87
2023-02-03T02:53:03.811Z,11.50
2023-02-03T02:54:06.092Z,9.00
2023-02-03T02:55:08.854Z,10.37
2023-02-03T02:56:07.136Z,10.00
2023-02-03T02:57:04.353Z,13.10
2023-02-03T02:58:06.810Z,10.37
2023-02-03T02:59:03.564Z,11.63
2023-02-03T03:00:03.245Z,11.23
2023-02-03T03:01:02.575Z,11.20
2023-02-03T03:02:01.392Z,11.80
2023-02-03T03:03:06.704Z,10.73
2023-02-03T03:04:05.541Z,11.10
2023-02-03T03:05:06.082Z,11.30
2023-02-03T03:06:05.111Z,10.10
2023-02-03T03:07:07.653Z,10.77
2023-02-03T03:08:01.821Z,11.77
2023-02-03T03:09:05.433Z,11.03
2023-02-03T03:10:08.901Z,10.97
2023-02-03T03:11:02.709Z,10.73
2023-02-03T03:12:07.507Z,10.83
2023-02-03T03:13:05.361Z,11.43
2023-02-03T03:14:04.329Z,10.47
2023-02-03T03:15:06.798Z,12.57
2023-02-03T03:16:06.247Z,9.73
2023-02-03T03:17:06.837Z,11.60
2023-02-03T03:18:09.404Z,12.20
2023-02-03T03:19:06.181Z,10.87
2023-02-03T03:20:06.653Z,11.07
2023-02-03T03:21:04.911Z,11.17
2023-02-03T03:22:05.407Z,10.33
2023-02-03T03:23:06.892Z,10.93
2023-02-03T03:24:07.320Z,11.07
2023-02-03T03:25:14.873Z,10.47
2023-02-03T03:27:08.071Z,11.13
2023-02-03T03:28:07.946Z,10.80
2023-02-03T03:29:10.344Z,11.73
2023-02-03T03:30:08.731Z,10.83
2023-02-03T03:31:01.621Z,10.60
2023-02-03T03:32:02.558Z,11.00
2023-02-03T03:33:01.953Z,11.70
2023-02-03T03:34:01.891Z,11.23
2023-02-03T03:35:02.891Z,11.10
2023-02-03T03:36:09.060Z,11.47
2023-02-03T03:37:08.193Z,11.33
2023-02-03T03:38:08.256Z,10.13
2023-02-03T03:39:08.862Z,11.33
2023-02-03T03:40:08.873Z,10.10
2023-02-03T03:41:06.297Z,11.13
2023-02-03T03:42:10.906Z,12.03
2023-02-03T03:43:07.383Z,10.93
2023-02-03T03:44:05.778Z,11.63
2023-02-03T03:45:08.505Z,11.33
2023-02-03T03:46:09.381Z,12.20
2023-02-03T03:47:10.373Z,10.47
2023-02-03T03:48:06.677Z,11.77
2023-02-03T03:49:06.325Z,11.80
2023-02-03T03:50:05.809Z,10.40
2023-02-03T03:51:07.413Z,10.97
2023-02-03T03:52:07.154Z,11.23
2023-02-03T03:53:03.648Z,10.80
2023-02-03T03:54:06.484Z,12.13
2023-02-03T03:55:05.909Z,11.20
2023-02-03T03:56:06.752Z,11.13
2023-02-03T03:58:05.691Z,12.03
2023-02-03T03:59:03.499Z,11.93
2023-02-03T04:00:04.913Z,12.77
2023-02-03T04:01:05.238Z,11.43
2023-02-03T04:02:03.509Z,13.10
2023-02-03T04:03:07.760Z,9.97
2023-02-03T04:04:08.575Z,11.00
2023-02-03T04:05:02.618Z,10.80
2023-02-03T04:06:01.846Z,11.17
2023-02-03T04:07:01.470Z,11.23
2023-02-03T04:08:01.754Z,11.10
2023-02-03T04:09:01.792Z,12.73
2023-02-03T04:10:03.632Z,11.90
2023-02-03T04:11:01.625Z,11.03
2023-02-03T04:12:01.476Z,12.20
2023-02-03T04:13:01.839Z,13.17
2023-02-03T04:14:10.419Z,11.53
2023-02-03T04:15:01.496Z,12.97
2023-02-03T04:16:02.043Z,11.53
2023-02-03T04:17:02.201Z,12.37
2023-02-03T04:18:02.642Z,11.23
2023-02-03T04:19:01.404Z,12.67
2023-02-03T04:20:02.469Z,12.37
2023-02-03T04:21:01.701Z,11.60
2023-02-03T04:22:03.009Z,12.37
2023-02-03T04:23:01.425Z,13.20
2023-02-03T04:24:01.685Z,12.57
2023-02-03T04:25:01.669Z,13.23
2023-02-03T04:26:01.748Z,11.50
2023-02-03T04:27:03.684Z,12.47
2023-02-03T04:28:01.465Z,11.40
2023-02-03T04:29:03.147Z,12.53
2023-02-03T04:30:01.796Z,11.80
2023-02-03T04:31:02.172Z,12.23
2023-02-03T04:32:01.774Z,11.63
2023-02-03T04:33:02.082Z,13.37
2023-02-03T04:34:01.671Z,10.50
2023-02-03T04:35:02.822Z,12.83
2023-02-03T04:36:01.416Z,11.57
2023-02-03T04:37:01.574Z,14.10
2023-02-03T04:38:01.448Z,13.40
2023-02-03T04:39:01.710Z,12.17
2023-02-03T04:40:01.469Z,14.30
2023-02-03T04:41:01.418Z,12.33
2023-02-03T04:42:01.844Z,12.70
2023-02-03T04:43:06.608Z,13.37
2023-02-03T04:44:01.691Z,12.03
2023-02-03T04:46:01.503Z,13.40
2023-02-03T04:47:01.854Z,13.00
2023-02-03T04:48:01.559Z,12.30
2023-02-03T04:49:01.788Z,14.10
2023-02-03T04:50:02.120Z,12.40
2023-02-03T04:52:02.070Z,12.50
2023-02-03T04:53:01.401Z,15.47
2023-02-03T04:54:01.793Z,13.07
2023-02-03T04:55:02.211Z,13.50
2023-02-03T04:56:02.197Z,12.50
2023-02-03T04:58:01.501Z,12.30
2023-02-03T04:59:01.693Z,13.20
2023-02-03T05:00:01.850Z,14.80
2023-02-03T05:01:06.281Z,11.30
2023-02-03T05:02:02.426Z,12.83
2023-02-03T05:03:01.477Z,12.60
2023-02-03T05:04:01.759Z,11.13
2023-02-03T05:05:01.406Z,12.20
2023-02-03T05:06:01.887Z,11.70
2023-02-03T05:07:02.241Z,14.90
2023-02-03T05:08:01.873Z,11.90
2023-02-03T05:09:01.935Z,13.50
2023-02-03T05:10:01.429Z,13.83
2023-02-03T05:11:02.449Z,10.70
2023-02-03T05:12:02.025Z,11.23
2023-02-03T05:13:02.122Z,11.83
2023-02-03T05:14:02.226Z,14.00
2023-02-03T05:15:01.831Z,14.87
2023-02-03T05:16:01.418Z,11.63
2023-02-03T05:17:01.775Z,13.27
2023-02-03T05:18:01.659Z,12.17
2023-02-03T05:19:01.619Z,13.57
2023-02-03T05:20:01.404Z,13.10
2023-02-03T05:21:01.445Z,12.30
2023-02-03T05:22:01.705Z,13.77
2023-02-03T05:23:01.617Z,11.83
2023-02-03T05:24:01.396Z,12.30
2023-02-03T05:25:02.889Z,14.97
2023-02-03T05:26:01.760Z,14.97
2023-02-03T05:27:01.499Z,14.90
2023-02-03T05:28:01.853Z,13.50
2023-02-03T05:29:01.977Z,12.73
2023-02-03T05:30:01.422Z,10.80
2023-02-03T05:31:02.414Z,10.60
2023-02-03T05:32:01.816Z,12.43
2023-02-03T05:33:01.833Z,11.50
2023-02-03T05:34:03.109Z,14.43
2023-02-03T05:35:01.766Z,15.77
2023-02-03T05:36:02.037Z,12.87
2023-02-03T05:37:02.067Z,11.13
2023-02-03T05:38:01.635Z,12.47
2023-02-03T05:39:02.009Z,12.80
2023-02-03T05:40:01.756Z,14.00
2023-02-03T05:41:01.455Z,12.70
2023-02-03T05:42:01.913Z,11.93
2023-02-03T05:43:01.850Z,12.70
2023-02-03T05:44:01.466Z,14.57
2023-02-03T05:45:01.563Z,11.67
2023-02-03T05:46:02.683Z,14.50
2023-02-03T05:47:01.399Z,12.90
2023-02-03T05:49:01.417Z,11.97
2023-02-03T05:50:01.680Z,11.77
2023-02-03T05:51:02.054Z,13.10
2023-02-03T05:52:01.765Z,13.57
2023-02-03T05:53:03.156Z,11.77
2023-02-03T05:54:01.398Z,12.93
2023-02-03T05:55:01.790Z,14.80
2023-02-03T05:56:01.507Z,14.00
2023-02-03T05:57:01.463Z,11.97
2023-02-03T05:58:01.745Z,12.97
2023-02-03T05:59:01.769Z,13.67
2023-02-03T06:00:02.309Z,14.43
2023-02-03T06:01:01.851Z,12.97
2023-02-03T06:02:01.387Z,12.40
2023-02-03T06:03:02.959Z,11.20
2023-02-03T06:04:02.517Z,12.37
2023-02-03T06:05:01.748Z,11.93
2023-02-03T06:06:01.383Z,12.87
2023-02-03T06:07:01.387Z,11.70
2023-02-03T06:08:01.476Z,13.90
2023-02-03T06:09:03.497Z,11.87
2023-02-03T06:10:01.456Z,14.40
2023-02-03T06:12:02.031Z,12.77
2023-02-03T06:13:07.621Z,11.63
2023-02-03T06:14:02.493Z,12.83
2023-02-03T06:15:01.379Z,13.10
2023-02-03T06:16:01.482Z,13.77
2023-02-03T06:17:01.451Z,11.87
2023-02-03T06:18:01.387Z,12.77
2023-02-03T06:19:01.790Z,13.30
2023-02-03T06:20:01.403Z,14.00
2023-02-03T06:21:01.748Z,14.80
2023-02-03T06:22:01.376Z,11.10
2023-02-03T06:23:01.692Z,12.57
2023-02-03T06:24:01.394Z,13.27
2023-02-03T06:25:01.395Z,12.57
2023-02-03T06:26:01.748Z,14.17
2023-02-03T06:27:01.726Z,12.40
2023-02-03T06:28:01.648Z,13.07
2023-02-03T06:29:01.404Z,13.67
2023-02-03T06:30:01.823Z,12.17
2023-02-03T06:31:01.782Z,12.17
2023-02-03T06:32:01.545Z,12.37
2023-02-03T06:33:01.406Z,12.87
2023-02-03T06:34:01.631Z,12.77
2023-02-03T06:35:01.736Z,12.50
2023-02-03T06:36:01.761Z,11.33
2023-02-03T06:37:01.400Z,11.80
2023-02-03T06:38:01.893Z,12.20
2023-02-03T06:39:01.409Z,12.00
2023-02-03T06:40:01.980Z,13.47
2023-02-03T06:41:01.795Z,13.30
2023-02-03T06:42:01.839Z,12.27
2023-02-03T06:43:01.816Z,13.47
2023-02-03T06:44:01.467Z,11.97
2023-02-03T06:45:01.883Z,12.30
2023-02-03T06:46:02.080Z,13.50
2023-02-03T06:47:01.741Z,12.00
2023-02-03T06:48:01.392Z,12.23
2023-02-03T06:49:01.422Z,12.83
2023-02-03T06:50:01.908Z,13.47
2023-02-03T06:51:01.739Z,12.70
2023-02-03T06:52:01.391Z,11.27
2023-02-03T06:53:01.735Z,12.33
2023-02-03T06:54:02.060Z,12.00
2023-02-03T06:55:02.449Z,12.63
2023-02-03T06:56:01.618Z,12.37
2023-02-03T06:57:01.742Z,13.70
2023-02-03T06:58:01.773Z,13.50
2023-02-03T06:59:01.429Z,12.43
2023-02-03T07:00:02.769Z,12.77
2023-02-03T07:01:01.391Z,13.30
2023-02-03T07:02:01.832Z,12.90
2023-02-03T07:03:01.801Z,12.63
2023-02-03T07:04:01.804Z,12.60
2023-02-03T07:05:01.723Z,12.87
2023-02-03T07:06:01.722Z,12.13
2023-02-03T07:07:01.621Z,12.47
2023-02-03T07:08:01.532Z,12.60
2023-02-03T07:09:03.768Z,12.50
2023-02-03T07:10:02.145Z,12.83
2023-02-03T07:11:01.387Z,12.13
2023-02-03T07:12:01.438Z,13.43
2023-02-03T07:13:02.090Z,13.90
2023-02-03T07:14:01.385Z,12.40
2023-02-03T07:15:01.553Z,13.17
2023-02-03T07:16:01.475Z,14.37
2023-02-03T07:17:02.197Z,12.13
2023-02-03T07:18:01.971Z,12.37
2023-02-03T07:19:01.747Z,12.57
2023-02-03T07:20:01.966Z,13.80
2023-02-03T07:21:03.765Z,14.33
2023-02-03T07:22:01.385Z,12.63
2023-02-03T07:23:01.733Z,12.60
2023-02-03T07:24:01.735Z,13.67
2023-02-03T07:25:01.400Z,11.07
2023-02-03T07:26:03.054Z,12.70
2023-02-03T07:27:03.432Z,11.90
2023-02-03T07:28:01.401Z,14.37
2023-02-03T07:29:01.845Z,12.77
2023-02-03T07:30:01.375Z,13.73
2023-02-03T07:31:02.512Z,12.63
2023-02-03T07:32:01.837Z,14.90
2023-02-03T07:33:01.721Z,11.97
2023-02-03T07:34:01.402Z,12.23
2023-02-03T07:35:01.750Z,13.33
2023-02-03T07:36:01.920Z,14.20
2023-02-03T07:37:01.397Z,11.43
2023-02-03T07:38:01.725Z,14.87
2023-02-03T07:39:01.902Z,13.23
2023-02-03T07:40:02.000Z,12.27
2023-02-03T07:41:01.379Z,11.53
2023-02-03T07:42:01.415Z,12.90
2023-02-03T07:43:01.398Z,13.60
2023-02-03T07:44:01.781Z,13.37
2023-02-03T07:45:01.727Z,12.20
2023-02-03T07:46:01.847Z,13.40
2023-02-03T07:47:01.730Z,14.00
2023-02-03T07:48:01.398Z,13.30
2023-02-03T07:49:01.393Z,13.20
2023-02-03T07:50:01.423Z,13.53
2023-02-03T07:51:01.877Z,13.60
2023-02-03T07:52:01.378Z,13.17
2023-02-03T07:53:02.078Z,13.37
2023-02-03T07:54:01.747Z,13.60
2023-02-03T07:55:01.446Z,13.43
2023-02-03T07:56:03.256Z,12.10
2023-02-03T07:57:01.377Z,14.90
2023-02-03T07:58:03.285Z,14.70
2023-02-03T07:59:01.838Z,12.43
2023-02-03T08:00:01.649Z,16.17
2023-02-03T08:01:01.400Z,13.67
2023-02-03T08:02:01.620Z,12.57
2023-02-03T08:03:01.821Z,12.30
2023-02-03T08:04:01.383Z,14.27
2023-02-03T08:05:01.503Z,13.37
2023-02-03T08:06:01.421Z,13.50
2023-02-03T08:07:02.209Z,14.13
2023-02-03T08:08:01.382Z,12.90
2023-02-03T08:09:01.387Z,14.37
2023-02-03T08:10:02.152Z,13.43
2023-02-03T08:11:02.006Z,12.93
2023-02-03T08:12:01.624Z,12.13
2023-02-03T08:13:01.642Z,10.70
2023-02-03T08:14:01.381Z,14.70
2023-02-03T08:15:01.392Z,12.47
2023-02-03T08:16:01.917Z,14.40
2023-02-03T08:17:01.389Z,13.23
2023-02-03T08:18:01.399Z,14.13
2023-02-03T08:19:01.381Z,13.83
2023-02-03T08:20:01.529Z,11.93
2023-02-03T08:21:01.726Z,12.80
2023-02-03T08:22:01.388Z,14.93
2023-02-03T08:23:01.779Z,13.00
2023-02-03T08:24:01.612Z,13.17
2023-02-03T08:25:01.457Z,12.07
2023-02-03T08:26:01.768Z,13.63
2023-02-03T08:27:01.414Z,12.93
2023-02-03T08:28:01.404Z,13.70
2023-02-03T08:29:01.448Z,12.03
2023-02-03T08:30:01.873Z,12.43
2023-02-03T08:31:01.551Z,13.07
2023-02-03T08:32:01.455Z,13.60
2023-02-03T08:33:01.469Z,14.93
2023-02-03T08:34:01.720Z,13.57
2023-02-03T08:35:01.953Z,14.97
2023-02-03T08:36:01.739Z,12.90
2023-02-03T08:37:01.820Z,13.70
2023-02-03T08:38:02.042Z,14.00
2023-02-03T08:39:01.810Z,14.63
2023-02-03T08:40:01.775Z,13.83
2023-02-03T08:41:01.553Z,12.70
2023-02-03T08:42:01.989Z,12.07
2023-02-03T08:43:01.770Z,11.40
2023-02-03T08:44:01.748Z,13.13
2023-02-03T08:45:03.418Z,11.57
2023-02-03T08:46:03.460Z,11.23
2023-02-03T08:47:02.187Z,12.40
2023-02-03T08:48:01.809Z,11.63
2023-02-03T08:49:01.748Z,12.63
2023-02-03T08:50:01.864Z,12.30
2023-02-03T08:51:01.708Z,13.80
2023-02-03T08:52:01.400Z,14.90
2023-02-03T08:53:01.763Z,12.90
2023-02-03T08:54:01.409Z,13.90
2023-02-03T08:55:01.519Z,10.50
2023-02-03T08:56:04.011Z,12.67
2023-02-03T08:57:01.716Z,13.17
2023-02-03T08:58:01.727Z,15.40
2023-02-03T08:59:01.879Z,11.73
2023-02-03T09:00:03.109Z,12.43
2023-02-03T09:01:10.030Z,12.47
2023-02-03T09:02:02.016Z,11.87
2023-02-03T09:03:02.163Z,11.57
2023-02-03T09:04:01.758Z,14.13
2023-02-03T09:05:01.992Z,14.10
2023-02-03T09:06:02.945Z,15.00
2023-02-03T09:07:02.298Z,13.03
2023-02-03T09:08:02.491Z,13.80
2023-02-03T09:09:02.215Z,13.57
2023-02-03T09:10:01.824Z,13.80
2023-02-03T09:11:01.399Z,13.97
2023-02-03T09:12:01.390Z,11.60
2023-02-03T09:13:01.382Z,12.53
2023-02-03T09:14:01.380Z,13.03
2023-02-03T09:15:01.388Z,12.97
2023-02-03T09:16:01.715Z,12.50
2023-02-03T09:17:03.110Z,13.60
2023-02-03T09:18:01.390Z,15.40
2023-02-03T09:19:01.984Z,12.83
2023-02-03T09:20:01.985Z,12.57
2023-02-03T09:21:02.257Z,11.63
2023-02-03T09:22:01.957Z,11.37
2023-02-03T09:23:01.388Z,11.97
2023-02-03T09:24:02.165Z,12.83
2023-02-03T09:25:01.386Z,11.30
2023-02-03T09:26:01.709Z,12.57
2023-02-03T09:27:01.428Z,11.73
2023-02-03T09:28:01.865Z,11.87
2023-02-03T09:29:01.718Z,13.37
2023-02-03T09:30:01.519Z,11.83
2023-02-03T09:31:03.075Z,12.97
2023-02-03T09:32:01.762Z,12.37
2023-02-03T09:33:01.383Z,11.37
2023-02-03T09:34:01.780Z,12.30
2023-02-03T09:35:01.422Z,14.13
2023-02-03T09:36:01.863Z,12.80
2023-02-03T09:37:01.760Z,11.23
2023-02-03T09:38:01.379Z,13.00
2023-02-03T09:39:01.381Z,11.43
2023-02-03T09:40:01.958Z,10.97
2023-02-03T09:41:16.345Z,12.67
2023-02-03T09:42:18.976Z,11.07
2023-02-03T09:43:12.795Z,12.93
2023-02-03T09:44:10.583Z,11.10
2023-02-03T09:45:13.977Z,10.60
2023-02-03T09:46:07.076Z,9.17
2023-02-03T09:47:09.321Z,10.63
2023-02-03T09:48:05.377Z,10.00
2023-02-03T09:49:13.149Z,10.97
2023-02-03T09:50:04.623Z,10.50
2023-02-03T09:51:01.900Z,9.17
2023-02-03T09:52:07.899Z,8.90
2023-02-03T09:53:06.417Z,9.77
2023-02-03T09:54:06.780Z,11.07
2023-02-03T09:55:05.689Z,8.97
2023-02-03T09:56:01.392Z,9.97
2023-02-03T09:57:06.096Z,9.80
2023-02-03T09:58:04.790Z,7.80
2023-02-03T09:59:03.104Z,8.00
2023-02-03T10:00:13.671Z,8.83
2023-02-03T10:01:06.692Z,8.00
2023-02-03T10:02:12.413Z,8.00
2023-02-03T10:03:07.478Z,6.83
2023-02-03T10:04:11.777Z,8.40
2023-02-03T10:05:17.231Z,8.27
2023-02-03T10:06:08.663Z,6.13
2023-02-03T10:07:11.779Z,6.80
2023-02-03T10:08:11.527Z,4.97
2023-02-03T10:09:17.899Z,4.37
2023-02-03T10:10:12.968Z,4.20
2023-02-03T10:11:11.650Z,3.07
2023-02-03T10:12:20.798Z,3.10
2023-02-03T10:13:10.329Z,1.90
2023-02-03T10:14:17.979Z,3.27
2023-02-03T10:15:19.234Z,2.63
2023-02-03T10:16:13.505Z,2.47
2023-02-03T10:17:18.186Z,2.30
2023-02-03T10:18:06.030Z,2.17
2023-02-03T10:19:08.613Z,2.07
2023-02-03T10:20:10.383Z,2.20
2023-02-03T10:21:11.655Z,2.07
2023-02-03T10:22:04.659Z,2.00
2023-02-03T10:23:09.703Z,2.10
2023-02-03T10:24:05.069Z,2.30
2023-02-03T10:25:11.357Z,1.83
2023-02-03T10:26:06.919Z,2.00
2023-02-03T10:27:01.728Z,1.33
2023-02-03T10:28:09.036Z,1.83
2023-02-03T10:29:08.158Z,2.07
2023-02-03T10:30:10.813Z,1.47
2023-02-03T10:31:11.908Z,2.30
2023-02-03T10:32:01.521Z,1.70
2023-02-03T10:33:09.522Z,1.90
2023-02-03T10:34:09.501Z,1.33
2023-02-03T10:35:01.392Z,2.20
2023-02-03T10:36:09.269Z,1.43
2023-02-03T10:37:10.032Z,1.90
2023-02-03T10:38:05.192Z,1.10
2023-02-03T10:39:16.597Z,1.60
2023-02-03T10:40:02.962Z,2.00
2023-02-03T10:41:01.935Z,1.43
2023-02-03T10:42:04.520Z,1.00
2023-02-03T10:43:01.804Z,1.83
2023-02-03T10:44:05.915Z,1.07
2023-02-03T10:45:01.762Z,0.90
2023-02-03T10:46:01.887Z,1.20
2023-02-03T10:47:09.229Z,1.00
2023-02-03T10:48:03.324Z,1.07
2023-02-03T10:49:01.410Z,1.77
2023-02-03T10:50:05.513Z,1.97
2023-02-03T10:51:02.050Z,1.10
2023-02-03T10:52:01.379Z,1.73
2023-02-03T10:53:19.585Z,1.90
2023-02-03T10:54:01.421Z,1.07
2023-02-03T10:55:06.401Z,1.37
2023-02-03T10:56:05.779Z,1.03
2023-02-03T10:57:05.125Z,2.03
2023-02-03T10:58:14.233Z,0.10
2023-02-03T10:59:02.297Z,0.83
2023-02-03T11:00:16.390Z,1.00
2023-02-03T11:01:07.394Z,1.00
2023-02-03T11:02:07.492Z,0.73
2023-02-03T11:03:05.953Z,1.00
2023-02-03T11:04:04.216Z,1.00
2023-02-03T11:05:11.286Z,0.97
2023-02-03T11:06:07.787Z,0.50
2023-02-03T11:07:04.717Z,0.53
2023-02-03T11:08:02.018Z,1.10
2023-02-03T11:09:11.628Z,0.73
2023-02-03T11:10:01.394Z,1.33
2023-02-03T11:11:04.314Z,1.87
2023-02-03T11:12:07.514Z,1.03
2023-02-03T11:13:16.771Z,1.00
2023-02-03T11:14:15.612Z,1.40
2023-02-03T11:15:05.138Z,0.80
2023-02-03T11:16:04.246Z,1.00
2023-02-03T11:17:07.056Z,1.00
2023-02-03T11:18:01.445Z,0.73
2023-02-03T11:19:03.731Z,1.00
2023-02-03T11:20:13.044Z,1.00
2023-02-03T11:21:06.323Z,0.77
2023-02-03T11:22:01.807Z,1.00
2023-02-03T11:23:04.144Z,1.00
2023-02-03T11:24:05.537Z,0.80
2023-02-03T11:25:03.633Z,0.63
2023-02-03T11:26:11.362Z,0.90
2023-02-03T11:27:05.595Z,0.20
2023-02-03T11:28:07.207Z,1.00
2023-02-03T11:29:04.307Z,0.27
2023-02-03T11:30:14.782Z,1.00
2023-02-03T11:31:01.824Z,0.87
2023-02-03T11:32:13.446Z,1.00
2023-02-03T11:33:02.959Z,1.00
2023-02-03T11:34:03.971Z,0.30
2023-02-03T11:35:03.571Z,1.00
2023-02-03T11:36:02.312Z,0.23
2023-02-03T11:37:19.939Z,0.00
2023-02-03T11:38:01.806Z,0.30
2023-02-03T11:39:16.520Z,0.00
2023-02-03T11:40:20.800Z,0.00
2023-02-03T11:41:02.493Z,0.23
2023-02-03T11:42:02.350Z,0.00
2023-02-03T11:43:13.142Z,0.53
2023-02-03T11:44:10.844Z,0.00
2023-02-03T11:45:13.271Z,0.00
2023-02-03T11:46:05.064Z,0.00
2023-02-03T11:47:07.996Z,0.20
2023-02-03T11:48:14.719Z,0.70
2023-02-03T11:49:11.537Z,0.00
2023-02-03T11:50:16.130Z,0.00
2023-02-03T11:51:12.096Z,0.00
2023-02-03T11:52:17.227Z,0.00
2023-02-03T11:53:17.058Z,0.00
2023-02-03T11:54:14.257Z,0.00
2023-02-03T11:55:13.877Z,0.00
2023-02-03T11:56:14.270Z,0.00
2023-02-03T11:57:18.149Z,0.00
2023-02-03T11:58:19.468Z,0.00
2023-02-03T11:59:20.737Z,0.00
2023-02-03T12:00:09.305Z,0.00
2023-02-03T12:01:13.014Z,0.00
2023-02-03T12:02:20.807Z,0.00
2023-02-03T12:03:20.523Z,0.00
2023-02-03T12:04:20.801Z,0.00
2023-02-03T12:05:10.042Z,0.00
2023-02-03T12:06:15.749Z,0.00
2023-02-03T12:07:17.196Z,0.00
2023-02-03T12:08:12.451Z,0.00
2023-02-03T12:09:10.286Z,0.00
2023-02-03T12:10:08.808Z,0.00
2023-02-03T12:11:13.857Z,0.00
2023-02-03T12:12:15.164Z,0.00
2023-02-03T12:13:14.594Z,0.00
2023-02-03T12:14:20.772Z,0.00
2023-02-03T12:15:16.217Z,0.00
2023-02-03T12:16:15.725Z,0.00
2023-02-03T12:17:17.239Z,0.00
2023-02-03T12:18:13.424Z,0.00
2023-02-03T12:19:13.995Z,0.00
2023-02-03T12:20:16.820Z,0.00
2023-02-03T12:21:11.614Z,0.00
2023-02-03T12:22:12.595Z,0.00
2023-02-03T12:23:12.120Z,0.00
2023-02-03T12:24:14.688Z,0.00
2023-02-03T12:25:16.816Z,0.00
2023-02-03T12:26:12.986Z,0.00
2023-02-03T12:27:17.772Z,0.00
2023-02-03T12:28:27.397Z,0.00
2023-02-03T12:29:08.451Z,0.00
2023-02-03T12:30:09.248Z,0.00
2023-02-03T12:31:08.756Z,0.00
2023-02-03T12:32:12.173Z,0.00
2023-02-03T12:33:10.897Z,0.00
2023-02-03T12:34:12.833Z,0.00
2023-02-03T12:35:12.728Z,0.00
2023-02-03T12:36:08.657Z,0.63
2023-02-03T12:37:07.549Z,0.00
2023-02-03T12:38:07.520Z,0.00
2023-02-03T12:39:10.732Z,0.00
2023-02-03T12:40:11.561Z,0.00
2023-02-03T12:41:10.065Z,0.00
2023-02-03T12:42:11.622Z,0.00
2023-02-03T12:43:17.468Z,0.00
2023-02-03T12:44:07.686Z,0.00
2023-02-03T12:45:08.707Z,0.00
2023-02-03T12:46:06.924Z,0.00
2023-02-03T12:47:12.188Z,0.00
2023-02-03T12:48:08.399Z,0.00
2023-02-03T12:49:09.672Z,0.00
2023-02-03T12:50:06.832Z,0.00
2023-02-03T12:51:09.149Z,0.00
2023-02-03T12:52:08.267Z,0.00
2023-02-03T12:53:10.485Z,0.00
2023-02-03T12:54:10.425Z,0.00
2023-02-03T12:55:15.154Z,0.00
2023-02-03T12:56:07.790Z,0.00
2023-02-03T12:57:11.694Z,0.00
2023-02-03T12:58:05.660Z,0.00
2023-02-03T12:59:05.704Z,0.00
2023-02-03T13:00:17.085Z,0.00
2023-02-03T13:01:08.999Z,0.00
2023-02-03T13:02:11.187Z,0.00
2023-02-03T13:03:13.132Z,0.00
2023-02-03T13:04:08.730Z,0.00
2023-02-03T13:05:07.441Z,0.00
2023-02-03T13:06:11.013Z,0.00
2023-02-03T13:07:07.707Z,0.00
2023-02-03T13:08:11.492Z,0.00
2023-02-03T13:09:14.710Z,0.00
2023-02-03T13:10:12.067Z,0.00
2023-02-03T13:11:15.304Z,0.00
2023-02-03T13:12:07.282Z,0.00